sensor_id;sensor_type;location;lat;lon;timestamp;P1;P2;P0
28647;PMS5003;17137;51.494;-0.262;2023-06-14T00:00:21;15;15;
28647;PMS5003;17137;51.494;-0.262;2023-06-14T00:00:52;16;16;
28647;PMS5003;17137;51.494;-0.262;2023-06-14T00:01:22;16;16;
28647;PMS5003;17137;51.494;-0.262;2023-06-14T00:01:52;15;15;
28647;PMS5003;17137;51.494;-0.262;2023-06-14T00:02:23;14;14;
28647;PMS5003;17137;51.494;-0.262;2023-06-14T00:02:53;14;14;
28647;PMS5003;17137;51.494;-0.262;2023-06-14T00:03:23;14;14;
28647;PMS5003;17137;51.494;-0.262;2023-06-14T00:03:53;15;15;
28647;PMS5003;17137;51.494;-0.262;2023-06-14T00:04:24;15;15;
28647;PMS5003;17137;51.494;-0.262;2023-06-14T00:04:54;15;15;
28647;PMS5003;17137;51.494;-0.262;2023-06-14T00:05:24;14;14;
28647;PMS5003;17137;51.494;-0.262;2023-06-14T00:05:55;15;15;
28647;PMS5003;17137;51.494;-0.262;2023-06-14T00:06:25;15;15;
28647;PMS5003;17137;51.494;-0.262;2023-06-14T00:06:55;16;16;
28647;PMS5003;17137;51.494;-0.262;2023-06-14T00:07:33;17;17;
28647;PMS5003;17137;51.494;-0.262;2023-06-14T00:08:04;19;19;
28647;PMS5003;17137;51.494;-0.262;2023-06-14T00:08:35;19;19;
28647;PMS5003;17137;51.494;-0.262;2023-06-14T00:09:05;20;20;
28647;PMS5003;17137;51.494;-0.262;2023-06-14T00:09:35;22;21;
28647;PMS5003;17137;51.494;-0.262;2023-06-14T00:10:06;21;21;
28647;PMS5003;17137;51.494;-0.262;2023-06-14T00:10:37;22;22;
28647;PMS5003;17137;51.494;-0.262;2023-06-14T00:11:08;21;21;
28647;PMS5003;17137;51.494;-0.262;2023-06-14T00:11:38;21;21;
28647;PMS5003;17137;51.494;-0.262;2023-06-14T00:12:09;22;22;
28647;PMS5003;17137;51.494;-0.262;2023-06-14T00:12:39;22;22;
28647;PMS5003;17137;51.494;-0.262;2023-06-14T00:13:10;22;21;
28647;PMS5003;17137;51.494;-0.262;2023-06-14T00:13:40;22;21;
28647;PMS5003;17137;51.494;-0.262;2023-06-14T00:14:11;22;21;
28647;PMS5003;17137;51.494;-0.262;2023-06-14T00:14:41;20;20;
28647;PMS5003;17137;51.494;-0.262;2023-06-14T00:15:11;20;20;
28647;PMS5003;17137;51.494;-0.262;2023-06-14T00:15:41;20;20;
28647;PMS5003;17137;51.494;-0.262;2023-06-14T00:16:12;19;18;
28647;PMS5003;17137;51.494;-0.262;2023-06-14T00:16:42;19;18;
28647;PMS5003;17137;51.494;-0.262;2023-06-14T00:17:13;19;18;
28647;PMS5003;17137;51.494;-0.262;2023-06-14T00:17:43;19;18;
28647;PMS5003;17137;51.494;-0.262;2023-06-14T00:18:14;19;18;
28647;PMS5003;17137;51.494;-0.262;2023-06-14T00:18:44;19;18;
28647;PMS5003;17137;51.494;-0.262;2023-06-14T00:19:14;18;17;
28647;PMS5003;17137;51.494;-0.262;2023-06-14T00:19:44;18;17;
28647;PMS5003;17137;51.494;-0.262;2023-06-14T00:20:15;18;17;
28647;PMS5003;17137;51.494;-0.262;2023-06-14T00:20:45;16;16;
28647;PMS5003;17137;51.494;-0.262;2023-06-14T00:21:15;16;16;
28647;PMS5003;17137;51.494;-0.262;2023-06-14T00:21:46;16;16;
28647;PMS5003;17137;51.494;-0.262;2023-06-14T00:22:16;15;15;
28647;PMS5003;17137;51.494;-0.262;2023-06-14T00:22:46;14;14;
28647;PMS5003;17137;51.494;-0.262;2023-06-14T00:23:16;14;14;
28647;PMS5003;17137;51.494;-0.262;2023-06-14T00:23:47;14;14;
28647;PMS5003;17137;51.494;-0.262;2023-06-14T00:24:17;15;15;
28647;PMS5003;17137;51.494;-0.262;2023-06-14T00:24:47;15;15;
28647;PMS5003;17137;51.494;-0.262;2023-06-14T00:25:18;15;15;
28647;PMS5003;17137;51.494;-0.262;2023-06-14T00:25:48;15;15;
28647;PMS5003;17137;51.494;-0.262;2023-06-14T00:26:19;15;15;
28647;PMS5003;17137;51.494;-0.262;2023-06-14T00:26:49;15;15;
28647;PMS5003;17137;51.494;-0.262;2023-06-14T00:27:19;15;15;
28647;PMS5003;17137;51.494;-0.262;2023-06-14T00:27:50;15;15;
28647;PMS5003;17137;51.494;-0.262;2023-06-14T00:28:20;15;15;
28647;PMS5003;17137;51.494;-0.262;2023-06-14T00:28:50;15;15;
28647;PMS5003;17137;51.494;-0.262;2023-06-14T00:29:21;15;15;
28647;PMS5003;17137;51.494;-0.262;2023-06-14T00:29:51;14;14;
28647;PMS5003;17137;51.494;-0.262;2023-06-14T00:30:21;14;14;
28647;PMS5003;17137;51.494;-0.262;2023-06-14T00:30:51;14;14;
28647;PMS5003;17137;51.494;-0.262;2023-06-14T00:31:22;14;14;
28647;PMS5003;17137;51.494;-0.262;2023-06-14T00:31:52;14;14;
28647;PMS5003;17137;51.494;-0.262;2023-06-14T00:32:23;14;14;
28647;PMS5003;17137;51.494;-0.262;2023-06-14T00:32:53;15;15;
28647;PMS5003;17137;51.494;-0.262;2023-06-14T00:33:23;15;15;
28647;PMS5003;17137;51.494;-0.262;2023-06-14T00:33:53;15;15;
28647;PMS5003;17137;51.494;-0.262;2023-06-14T00:34:24;14;14;
28647;PMS5003;17137;51.494;-0.262;2023-06-14T00:34:54;14;14;
28647;PMS5003;17137;51.494;-0.262;2023-06-14T00:35:24;14;14;
28647;PMS5003;17137;51.494;-0.262;2023-06-14T00:36:00;14;14;
28647;PMS5003;17137;51.494;-0.262;2023-06-14T00:36:30;14;14;
28647;PMS5003;17137;51.494;-0.262;2023-06-14T00:37:01;14;14;
28647;PMS5003;17137;51.494;-0.262;2023-06-14T00:37:31;15;15;
28647;PMS5003;17137;51.494;-0.262;2023-06-14T00:38:01;15;15;
28647;PMS5003;17137;51.494;-0.262;2023-06-14T00:38:31;15;15;
28647;PMS5003;17137;51.494;-0.262;2023-06-14T00:39:02;15;15;
28647;PMS5003;17137;51.494;-0.262;2023-06-14T00:39:32;15;15;
28647;PMS5003;17137;51.494;-0.262;2023-06-14T00:40:03;15;15;
28647;PMS5003;17137;51.494;-0.262;2023-06-14T00:40:34;17;15;
28647;PMS5003;17137;51.494;-0.262;2023-06-14T00:41:05;17;15;
28647;PMS5003;17137;51.494;-0.262;2023-06-14T00:41:35;17;15;
28647;PMS5003;17137;51.494;-0.262;2023-06-14T00:42:05;16;14;
28647;PMS5003;17137;51.494;-0.262;2023-06-14T00:42:36;16;14;
28647;PMS5003;17137;51.494;-0.262;2023-06-14T00:43:06;16;14;
28647;PMS5003;17137;51.494;-0.262;2023-06-14T00:43:37;16;15;
28647;PMS5003;17137;51.494;-0.262;2023-06-14T00:44:07;16;15;
28647;PMS5003;17137;51.494;-0.262;2023-06-14T00:44:37;16;15;
28647;PMS5003;17137;51.494;-0.262;2023-06-14T00:45:08;15;14;
28647;PMS5003;17137;51.494;-0.262;2023-06-14T00:45:39;15;14;
28647;PMS5003;17137;51.494;-0.262;2023-06-14T00:46:09;15;14;
28647;PMS5003;17137;51.494;-0.262;2023-06-14T00:46:40;16;15;
28647;PMS5003;17137;51.494;-0.262;2023-06-14T00:47:10;17;16;
28647;PMS5003;17137;51.494;-0.262;2023-06-14T00:47:41;17;16;
28647;PMS5003;17137;51.494;-0.262;2023-06-14T00:48:13;16;15;
28647;PMS5003;17137;51.494;-0.262;2023-06-14T00:48:44;16;15;
28647;PMS5003;17137;51.494;-0.262;2023-06-14T00:49:15;16;15;
28647;PMS5003;17137;51.494;-0.262;2023-06-14T00:49:47;16;15;
28647;PMS5003;17137;51.494;-0.262;2023-06-14T00:50:18;16;15;
28647;PMS5003;17137;51.494;-0.262;2023-06-14T00:50:50;15;14;
28647;PMS5003;17137;51.494;-0.262;2023-06-14T00:51:22;15;14;
28647;PMS5003;17137;51.494;-0.262;2023-06-14T00:51:52;15;14;
28647;PMS5003;17137;51.494;-0.262;2023-06-14T00:52:22;15;14;
28647;PMS5003;17137;51.494;-0.262;2023-06-14T00:52:53;15;13;
28647;PMS5003;17137;51.494;-0.262;2023-06-14T00:53:23;15;13;
28647;PMS5003;17137;51.494;-0.262;2023-06-14T00:53:54;15;13;
28647;PMS5003;17137;51.494;-0.262;2023-06-14T00:54:24;15;14;
28647;PMS5003;17137;51.494;-0.262;2023-06-14T00:54:55;15;14;
28647;PMS5003;17137;51.494;-0.262;2023-06-14T00:55:25;15;14;
28647;PMS5003;17137;51.494;-0.262;2023-06-14T00:55:55;15;15;
28647;PMS5003;17137;51.494;-0.262;2023-06-14T00:56:26;15;15;
28647;PMS5003;17137;51.494;-0.262;2023-06-14T00:56:57;15;15;
28647;PMS5003;17137;51.494;-0.262;2023-06-14T00:57:27;16;16;
28647;PMS5003;17137;51.494;-0.262;2023-06-14T00:57:58;15;15;
28647;PMS5003;17137;51.494;-0.262;2023-06-14T00:58:28;15;15;
28647;PMS5003;17137;51.494;-0.262;2023-06-14T00:59:00;14;14;
28647;PMS5003;17137;51.494;-0.262;2023-06-14T00:59:31;14;14;
28647;PMS5003;17137;51.494;-0.262;2023-06-14T01:00:01;14;14;
28647;PMS5003;17137;51.494;-0.262;2023-06-14T01:00:32;14;14;
28647;PMS5003;17137;51.494;-0.262;2023-06-14T01:01:02;14;14;
28647;PMS5003;17137;51.494;-0.262;2023-06-14T01:01:32;14;14;
28647;PMS5003;17137;51.494;-0.262;2023-06-14T01:02:02;13;13;
28647;PMS5003;17137;51.494;-0.262;2023-06-14T01:02:33;13;13;
28647;PMS5003;17137;51.494;-0.262;2023-06-14T01:03:04;13;13;
28647;PMS5003;17137;51.494;-0.262;2023-06-14T01:03:34;14;13;
28647;PMS5003;17137;51.494;-0.262;2023-06-14T01:04:04;14;13;
28647;PMS5003;17137;51.494;-0.262;2023-06-14T01:04:35;14;13;
28647;PMS5003;17137;51.494;-0.262;2023-06-14T01:05:05;14;14;
28647;PMS5003;17137;51.494;-0.262;2023-06-14T01:05:37;14;14;
28647;PMS5003;17137;51.494;-0.262;2023-06-14T01:06:11;14;14;
28647;PMS5003;17137;51.494;-0.262;2023-06-14T01:06:49;14;13;
28647;PMS5003;17137;51.494;-0.262;2023-06-14T01:07:32;14;13;
28647;PMS5003;17137;51.494;-0.262;2023-06-14T01:08:14;14;13;
28647;PMS5003;17137;51.494;-0.262;2023-06-14T01:08:56;14;13;
28647;PMS5003;17137;51.494;-0.262;2023-06-14T01:09:43;14;13;
28647;PMS5003;17137;51.494;-0.262;2023-06-14T01:10:30;14;13;
28647;PMS5003;17137;51.494;-0.262;2023-06-14T01:11:10;13;13;
28647;PMS5003;17137;51.494;-0.262;2023-06-14T01:11:48;13;13;
28647;PMS5003;17137;51.494;-0.262;2023-06-14T01:12:30;13;13;
28647;PMS5003;17137;51.494;-0.262;2023-06-14T01:13:08;14;12;
28647;PMS5003;17137;51.494;-0.262;2023-06-14T01:13:45;14;12;
28647;PMS5003;17137;51.494;-0.262;2023-06-14T01:14:16;14;12;
28647;PMS5003;17137;51.494;-0.262;2023-06-14T01:14:47;13;12;
28647;PMS5003;17137;51.494;-0.262;2023-06-14T01:15:20;13;12;
28647;PMS5003;17137;51.494;-0.262;2023-06-14T01:15:51;14;13;
28647;PMS5003;17137;51.494;-0.262;2023-06-14T01:16:22;14;13;
28647;PMS5003;17137;51.494;-0.262;2023-06-14T01:16:58;14;13;
28647;PMS5003;17137;51.494;-0.262;2023-06-14T01:17:28;14;13;
28647;PMS5003;17137;51.494;-0.262;2023-06-14T01:18:00;15;14;
28647;PMS5003;17137;51.494;-0.262;2023-06-14T01:18:31;15;14;
28647;PMS5003;17137;51.494;-0.262;2023-06-14T01:19:01;15;14;
28647;PMS5003;17137;51.494;-0.262;2023-06-14T01:19:32;15;14;
28647;PMS5003;17137;51.494;-0.262;2023-06-14T01:20:03;15;14;
28647;PMS5003;17137;51.494;-0.262;2023-06-14T01:20:34;15;14;
28647;PMS5003;17137;51.494;-0.262;2023-06-14T01:21:04;14;14;
28647;PMS5003;17137;51.494;-0.262;2023-06-14T01:21:35;14;14;
28647;PMS5003;17137;51.494;-0.262;2023-06-14T01:22:05;14;14;
28647;PMS5003;17137;51.494;-0.262;2023-06-14T01:22:35;13;12;
28647;PMS5003;17137;51.494;-0.262;2023-06-14T01:23:06;13;12;
28647;PMS5003;17137;51.494;-0.262;2023-06-14T01:23:36;13;12;
28647;PMS5003;17137;51.494;-0.262;2023-06-14T01:24:06;14;13;
28647;PMS5003;17137;51.494;-0.262;2023-06-14T01:24:37;15;14;
28647;PMS5003;17137;51.494;-0.262;2023-06-14T01:25:07;15;14;
28647;PMS5003;17137;51.494;-0.262;2023-06-14T01:25:38;15;15;
28647;PMS5003;17137;51.494;-0.262;2023-06-14T01:26:08;15;15;
28647;PMS5003;17137;51.494;-0.262;2023-06-14T01:26:38;15;15;
28647;PMS5003;17137;51.494;-0.262;2023-06-14T01:27:10;14;14;
28647;PMS5003;17137;51.494;-0.262;2023-06-14T01:27:41;14;14;
28647;PMS5003;17137;51.494;-0.262;2023-06-14T01:28:13;14;14;
28647;PMS5003;17137;51.494;-0.262;2023-06-14T01:28:45;14;14;
28647;PMS5003;17137;51.494;-0.262;2023-06-14T01:29:16;14;14;
28647;PMS5003;17137;51.494;-0.262;2023-06-14T01:29:46;14;14;
28647;PMS5003;17137;51.494;-0.262;2023-06-14T01:30:17;16;16;
28647;PMS5003;17137;51.494;-0.262;2023-06-14T01:30:50;16;16;
28647;PMS5003;17137;51.494;-0.262;2023-06-14T01:31:23;16;16;
28647;PMS5003;17137;51.494;-0.262;2023-06-14T01:31:54;16;16;
28647;PMS5003;17137;51.494;-0.262;2023-06-14T01:32:24;16;16;
28647;PMS5003;17137;51.494;-0.262;2023-06-14T01:32:57;17;17;
28647;PMS5003;17137;51.494;-0.262;2023-06-14T01:33:28;18;18;
28647;PMS5003;17137;51.494;-0.262;2023-06-14T01:34:00;18;18;
28647;PMS5003;17137;51.494;-0.262;2023-06-14T01:34:30;17;17;
28647;PMS5003;17137;51.494;-0.262;2023-06-14T01:35:01;17;17;
28647;PMS5003;17137;51.494;-0.262;2023-06-14T01:35:31;19;19;
28647;PMS5003;17137;51.494;-0.262;2023-06-14T01:36:02;19;19;
28647;PMS5003;17137;51.494;-0.262;2023-06-14T01:36:35;18;18;
28647;PMS5003;17137;51.494;-0.262;2023-06-14T01:37:10;18;18;
28647;PMS5003;17137;51.494;-0.262;2023-06-14T01:37:42;18;18;
28647;PMS5003;17137;51.494;-0.262;2023-06-14T01:38:16;17;17;
28647;PMS5003;17137;51.494;-0.262;2023-06-14T01:38:49;18;18;
28647;PMS5003;17137;51.494;-0.262;2023-06-14T01:39:21;18;18;
28647;PMS5003;17137;51.494;-0.262;2023-06-14T01:39:53;16;16;
28647;PMS5003;17137;51.494;-0.262;2023-06-14T01:40:24;16;16;
28647;PMS5003;17137;51.494;-0.262;2023-06-14T01:40:56;16;16;
28647;PMS5003;17137;51.494;-0.262;2023-06-14T01:41:28;16;16;
28647;PMS5003;17137;51.494;-0.262;2023-06-14T01:41:59;16;16;
28647;PMS5003;17137;51.494;-0.262;2023-06-14T01:42:30;16;16;
28647;PMS5003;17137;51.494;-0.262;2023-06-14T01:43:03;16;16;
28647;PMS5003;17137;51.494;-0.262;2023-06-14T01:43:34;16;16;
28647;PMS5003;17137;51.494;-0.262;2023-06-14T01:44:05;16;16;
28647;PMS5003;17137;51.494;-0.262;2023-06-14T01:44:36;15;15;
28647;PMS5003;17137;51.494;-0.262;2023-06-14T01:45:07;15;15;
28647;PMS5003;17137;51.494;-0.262;2023-06-14T01:45:40;15;15;
28647;PMS5003;17137;51.494;-0.262;2023-06-14T01:46:11;14;14;
28647;PMS5003;17137;51.494;-0.262;2023-06-14T01:46:43;14;14;
28647;PMS5003;17137;51.494;-0.262;2023-06-14T01:47:14;14;14;
28647;PMS5003;17137;51.494;-0.262;2023-06-14T01:47:45;14;14;
28647;PMS5003;17137;51.494;-0.262;2023-06-14T01:48:16;14;14;
28647;PMS5003;17137;51.494;-0.262;2023-06-14T01:48:47;14;14;
28647;PMS5003;17137;51.494;-0.262;2023-06-14T01:49:18;14;14;
28647;PMS5003;17137;51.494;-0.262;2023-06-14T01:49:49;13;13;
28647;PMS5003;17137;51.494;-0.262;2023-06-14T01:50:20;13;13;
28647;PMS5003;17137;51.494;-0.262;2023-06-14T01:50:51;13;13;
28647;PMS5003;17137;51.494;-0.262;2023-06-14T01:51:22;14;14;
28647;PMS5003;17137;51.494;-0.262;2023-06-14T01:51:52;14;14;
28647;PMS5003;17137;51.494;-0.262;2023-06-14T01:52:22;14;14;
28647;PMS5003;17137;51.494;-0.262;2023-06-14T01:52:53;14;14;
28647;PMS5003;17137;51.494;-0.262;2023-06-14T01:53:23;14;14;
28647;PMS5003;17137;51.494;-0.262;2023-06-14T01:53:53;14;14;
28647;PMS5003;17137;51.494;-0.262;2023-06-14T01:54:23;14;14;
28647;PMS5003;17137;51.494;-0.262;2023-06-14T01:54:54;14;14;
28647;PMS5003;17137;51.494;-0.262;2023-06-14T01:55:24;16;16;
28647;PMS5003;17137;51.494;-0.262;2023-06-14T01:55:54;16;16;
28647;PMS5003;17137;51.494;-0.262;2023-06-14T01:56:25;16;16;
28647;PMS5003;17137;51.494;-0.262;2023-06-14T01:56:55;16;16;
28647;PMS5003;17137;51.494;-0.262;2023-06-14T01:57:25;16;16;
28647;PMS5003;17137;51.494;-0.262;2023-06-14T01:57:55;16;16;
28647;PMS5003;17137;51.494;-0.262;2023-06-14T01:58:26;17;17;
28647;PMS5003;17137;51.494;-0.262;2023-06-14T01:58:56;17;17;
28647;PMS5003;17137;51.494;-0.262;2023-06-14T01:59:27;17;17;
28647;PMS5003;17137;51.494;-0.262;2023-06-14T01:59:57;18;18;
28647;PMS5003;17137;51.494;-0.262;2023-06-14T02:00:28;18;18;
28647;PMS5003;17137;51.494;-0.262;2023-06-14T02:00:58;18;18;
28647;PMS5003;17137;51.494;-0.262;2023-06-14T02:01:29;18;18;
28647;PMS5003;17137;51.494;-0.262;2023-06-14T02:01:59;18;18;
28647;PMS5003;17137;51.494;-0.262;2023-06-14T02:02:29;18;18;
28647;PMS5003;17137;51.494;-0.262;2023-06-14T02:02:59;18;18;
28647;PMS5003;17137;51.494;-0.262;2023-06-14T02:03:30;18;18;
28647;PMS5003;17137;51.494;-0.262;2023-06-14T02:04:00;18;18;
28647;PMS5003;17137;51.494;-0.262;2023-06-14T02:04:30;18;18;
28647;PMS5003;17137;51.494;-0.262;2023-06-14T02:05:01;18;18;
28647;PMS5003;17137;51.494;-0.262;2023-06-14T02:05:31;18;18;
28647;PMS5003;17137;51.494;-0.262;2023-06-14T02:06:01;18;18;
28647;PMS5003;17137;51.494;-0.262;2023-06-14T02:06:32;18;18;
28647;PMS5003;17137;51.494;-0.262;2023-06-14T02:07:02;18;18;
28647;PMS5003;17137;51.494;-0.262;2023-06-14T02:07:33;17;17;
28647;PMS5003;17137;51.494;-0.262;2023-06-14T02:08:03;17;17;
28647;PMS5003;17137;51.494;-0.262;2023-06-14T02:08:38;17;17;
28647;PMS5003;17137;51.494;-0.262;2023-06-14T02:09:09;16;16;
28647;PMS5003;17137;51.494;-0.262;2023-06-14T02:09:39;16;16;
28647;PMS5003;17137;51.494;-0.262;2023-06-14T02:10:10;16;16;
28647;PMS5003;17137;51.494;-0.262;2023-06-14T02:10:40;16;16;
28647;PMS5003;17137;51.494;-0.262;2023-06-14T02:11:10;16;16;
28647;PMS5003;17137;51.494;-0.262;2023-06-14T02:11:41;16;16;
28647;PMS5003;17137;51.494;-0.262;2023-06-14T02:12:11;14;14;
28647;PMS5003;17137;51.494;-0.262;2023-06-14T02:12:41;14;14;
28647;PMS5003;17137;51.494;-0.262;2023-06-14T02:13:11;14;14;
28647;PMS5003;17137;51.494;-0.262;2023-06-14T02:13:42;14;14;
28647;PMS5003;17137;51.494;-0.262;2023-06-14T02:14:12;15;15;
28647;PMS5003;17137;51.494;-0.262;2023-06-14T02:14:42;15;15;
28647;PMS5003;17137;51.494;-0.262;2023-06-14T02:15:12;15;15;
28647;PMS5003;17137;51.494;-0.262;2023-06-14T02:15:43;15;15;
28647;PMS5003;17137;51.494;-0.262;2023-06-14T02:16:13;15;15;
28647;PMS5003;17137;51.494;-0.262;2023-06-14T02:16:43;14;14;
28647;PMS5003;17137;51.494;-0.262;2023-06-14T02:17:14;14;14;
28647;PMS5003;17137;51.494;-0.262;2023-06-14T02:17:44;13;13;
28647;PMS5003;17137;51.494;-0.262;2023-06-14T02:18:15;13;13;
28647;PMS5003;17137;51.494;-0.262;2023-06-14T02:18:45;13;13;
28647;PMS5003;17137;51.494;-0.262;2023-06-14T02:19:15;13;13;
28647;PMS5003;17137;51.494;-0.262;2023-06-14T02:19:46;14;12;
28647;PMS5003;17137;51.494;-0.262;2023-06-14T02:20:16;14;12;
28647;PMS5003;17137;51.494;-0.262;2023-06-14T02:20:47;14;12;
28647;PMS5003;17137;51.494;-0.262;2023-06-14T02:21:17;15;13;
28647;PMS5003;17137;51.494;-0.262;2023-06-14T02:21:47;15;13;
28647;PMS5003;17137;51.494;-0.262;2023-06-14T02:22:18;15;13;
28647;PMS5003;17137;51.494;-0.262;2023-06-14T02:22:48;15;14;
28647;PMS5003;17137;51.494;-0.262;2023-06-14T02:23:18;15;14;
28647;PMS5003;17137;51.494;-0.262;2023-06-14T02:23:48;15;14;
28647;PMS5003;17137;51.494;-0.262;2023-06-14T02:24:19;16;14;
28647;PMS5003;17137;51.494;-0.262;2023-06-14T02:24:49;16;14;
28647;PMS5003;17137;51.494;-0.262;2023-06-14T02:25:19;16;14;
28647;PMS5003;17137;51.494;-0.262;2023-06-14T02:25:49;16;15;
28647;PMS5003;17137;51.494;-0.262;2023-06-14T02:26:20;16;15;
28647;PMS5003;17137;51.494;-0.262;2023-06-14T02:26:50;16;15;
28647;PMS5003;17137;51.494;-0.262;2023-06-14T02:27:20;17;16;
28647;PMS5003;17137;51.494;-0.262;2023-06-14T02:27:51;17;16;
28647;PMS5003;17137;51.494;-0.262;2023-06-14T02:28:21;17;16;
28647;PMS5003;17137;51.494;-0.262;2023-06-14T02:28:52;17;15;
28647;PMS5003;17137;51.494;-0.262;2023-06-14T02:29:22;17;15;
28647;PMS5003;17137;51.494;-0.262;2023-06-14T02:29:52;18;16;
28647;PMS5003;17137;51.494;-0.262;2023-06-14T02:30:22;18;16;
28647;PMS5003;17137;51.494;-0.262;2023-06-14T02:30:53;18;16;
28647;PMS5003;17137;51.494;-0.262;2023-06-14T02:31:23;18;16;
28647;PMS5003;17137;51.494;-0.262;2023-06-14T02:31:53;18;17;
28647;PMS5003;17137;51.494;-0.262;2023-06-14T02:32:24;18;17;
28647;PMS5003;17137;51.494;-0.262;2023-06-14T02:32:54;18;17;
28647;PMS5003;17137;51.494;-0.262;2023-06-14T02:33:24;19;17;
28647;PMS5003;17137;51.494;-0.262;2023-06-14T02:33:54;18;18;
28647;PMS5003;17137;51.494;-0.262;2023-06-14T02:34:25;18;18;
28647;PMS5003;17137;51.494;-0.262;2023-06-14T02:34:55;21;21;
28647;PMS5003;17137;51.494;-0.262;2023-06-14T02:35:25;21;21;
28647;PMS5003;17137;51.494;-0.262;2023-06-14T02:35:56;21;21;
28647;PMS5003;17137;51.494;-0.262;2023-06-14T02:36:27;20;20;
28647;PMS5003;17137;51.494;-0.262;2023-06-14T02:36:57;21;21;
28647;PMS5003;17137;51.494;-0.262;2023-06-14T02:37:27;22;22;
28647;PMS5003;17137;51.494;-0.262;2023-06-14T02:37:58;22;22;
28647;PMS5003;17137;51.494;-0.262;2023-06-14T02:38:28;23;23;
28647;PMS5003;17137;51.494;-0.262;2023-06-14T02:38:58;22;22;
28647;PMS5003;17137;51.494;-0.262;2023-06-14T02:39:29;25;22;
28647;PMS5003;17137;51.494;-0.262;2023-06-14T02:39:59;25;22;
28647;PMS5003;17137;51.494;-0.262;2023-06-14T02:40:29;25;22;
28647;PMS5003;17137;51.494;-0.262;2023-06-14T02:40:59;21;19;
28647;PMS5003;17137;51.494;-0.262;2023-06-14T02:41:30;20;18;
28647;PMS5003;17137;51.494;-0.262;2023-06-14T02:42:00;20;18;
28647;PMS5003;17137;51.494;-0.262;2023-06-14T02:42:30;20;17;
28647;PMS5003;17137;51.494;-0.262;2023-06-14T02:43:00;20;17;
28647;PMS5003;17137;51.494;-0.262;2023-06-14T02:43:31;21;18;
28647;PMS5003;17137;51.494;-0.262;2023-06-14T02:44:01;21;19;
28647;PMS5003;17137;51.494;-0.262;2023-06-14T02:44:32;21;19;
28647;PMS5003;17137;51.494;-0.262;2023-06-14T02:45:02;21;19;
28647;PMS5003;17137;51.494;-0.262;2023-06-14T02:45:33;20;17;
28647;PMS5003;17137;51.494;-0.262;2023-06-14T02:46:04;20;17;
28647;PMS5003;17137;51.494;-0.262;2023-06-14T02:46:34;20;17;
28647;PMS5003;17137;51.494;-0.262;2023-06-14T02:47:04;19;17;
28647;PMS5003;17137;51.494;-0.262;2023-06-14T02:47:35;19;17;
28647;PMS5003;17137;51.494;-0.262;2023-06-14T02:48:05;19;17;
28647;PMS5003;17137;51.494;-0.262;2023-06-14T02:48:35;19;16;
28647;PMS5003;17137;51.494;-0.262;2023-06-14T02:49:06;19;16;
28647;PMS5003;17137;51.494;-0.262;2023-06-14T02:49:36;19;16;
28647;PMS5003;17137;51.494;-0.262;2023-06-14T02:50:07;19;16;
28647;PMS5003;17137;51.494;-0.262;2023-06-14T02:50:38;19;16;
28647;PMS5003;17137;51.494;-0.262;2023-06-14T02:51:08;19;16;
28647;PMS5003;17137;51.494;-0.262;2023-06-14T02:51:39;18;15;
28647;PMS5003;17137;51.494;-0.262;2023-06-14T02:52:09;18;15;
28647;PMS5003;17137;51.494;-0.262;2023-06-14T02:52:39;18;15;
28647;PMS5003;17137;51.494;-0.262;2023-06-14T02:53:09;18;15;
28647;PMS5003;17137;51.494;-0.262;2023-06-14T02:53:40;18;15;
28647;PMS5003;17137;51.494;-0.262;2023-06-14T02:54:10;18;15;
28647;PMS5003;17137;51.494;-0.262;2023-06-14T02:54:40;14;14;
28647;PMS5003;17137;51.494;-0.262;2023-06-14T02:55:10;14;14;
28647;PMS5003;17137;51.494;-0.262;2023-06-14T02:55:41;14;14;
28647;PMS5003;17137;51.494;-0.262;2023-06-14T02:56:11;15;15;
28647;PMS5003;17137;51.494;-0.262;2023-06-14T02:56:41;15;15;
28647;PMS5003;17137;51.494;-0.262;2023-06-14T02:57:12;15;15;
28647;PMS5003;17137;51.494;-0.262;2023-06-14T02:57:42;14;14;
28647;PMS5003;17137;51.494;-0.262;2023-06-14T02:58:12;14;14;
28647;PMS5003;17137;51.494;-0.262;2023-06-14T02:58:43;14;14;
28647;PMS5003;17137;51.494;-0.262;2023-06-14T02:59:13;15;14;
28647;PMS5003;17137;51.494;-0.262;2023-06-14T02:59:43;15;14;
28647;PMS5003;17137;51.494;-0.262;2023-06-14T03:00:14;15;14;
28647;PMS5003;17137;51.494;-0.262;2023-06-14T03:00:45;17;15;
28647;PMS5003;17137;51.494;-0.262;2023-06-14T03:01:15;17;15;
28647;PMS5003;17137;51.494;-0.262;2023-06-14T03:01:45;17;15;
28647;PMS5003;17137;51.494;-0.262;2023-06-14T03:02:16;17;15;
28647;PMS5003;17137;51.494;-0.262;2023-06-14T03:02:46;17;15;
28647;PMS5003;17137;51.494;-0.262;2023-06-14T03:03:16;17;15;
28647;PMS5003;17137;51.494;-0.262;2023-06-14T03:03:47;17;15;
28647;PMS5003;17137;51.494;-0.262;2023-06-14T03:04:17;17;15;
28647;PMS5003;17137;51.494;-0.262;2023-06-14T03:04:47;17;15;
28647;PMS5003;17137;51.494;-0.262;2023-06-14T03:05:17;17;15;
28647;PMS5003;17137;51.494;-0.262;2023-06-14T03:05:48;17;15;
28647;PMS5003;17137;51.494;-0.262;2023-06-14T03:06:19;17;15;
28647;PMS5003;17137;51.494;-0.262;2023-06-14T03:06:50;17;15;
28647;PMS5003;17137;51.494;-0.262;2023-06-14T03:07:20;17;15;
28647;PMS5003;17137;51.494;-0.262;2023-06-14T03:07:50;17;15;
28647;PMS5003;17137;51.494;-0.262;2023-06-14T03:08:21;17;14;
28647;PMS5003;17137;51.494;-0.262;2023-06-14T03:08:51;17;14;
28647;PMS5003;17137;51.494;-0.262;2023-06-14T03:09:21;17;14;
28647;PMS5003;17137;51.494;-0.262;2023-06-14T03:09:51;18;15;
28647;PMS5003;17137;51.494;-0.262;2023-06-14T03:10:27;18;15;
28647;PMS5003;17137;51.494;-0.262;2023-06-14T03:10:57;18;15;
28647;PMS5003;17137;51.494;-0.262;2023-06-14T03:11:28;18;15;
28647;PMS5003;17137;51.494;-0.262;2023-06-14T03:11:58;18;15;
28647;PMS5003;17137;51.494;-0.262;2023-06-14T03:12:28;18;15;
28647;PMS5003;17137;51.494;-0.262;2023-06-14T03:12:58;18;15;
28647;PMS5003;17137;51.494;-0.262;2023-06-14T03:13:29;17;14;
28647;PMS5003;17137;51.494;-0.262;2023-06-14T03:13:59;17;14;
28647;PMS5003;17137;51.494;-0.262;2023-06-14T03:14:30;16;14;
28647;PMS5003;17137;51.494;-0.262;2023-06-14T03:15:01;17;15;
28647;PMS5003;17137;51.494;-0.262;2023-06-14T03:15:31;17;15;
28647;PMS5003;17137;51.494;-0.262;2023-06-14T03:16:01;15;14;
28647;PMS5003;17137;51.494;-0.262;2023-06-14T03:16:32;15;14;
28647;PMS5003;17137;51.494;-0.262;2023-06-14T03:17:02;15;14;
28647;PMS5003;17137;51.494;-0.262;2023-06-14T03:17:33;15;15;
28647;PMS5003;17137;51.494;-0.262;2023-06-14T03:18:03;15;15;
28647;PMS5003;17137;51.494;-0.262;2023-06-14T03:18:34;15;15;
28647;PMS5003;17137;51.494;-0.262;2023-06-14T03:19:04;16;15;
28647;PMS5003;17137;51.494;-0.262;2023-06-14T03:19:34;16;15;
28647;PMS5003;17137;51.494;-0.262;2023-06-14T03:20:05;16;15;
28647;PMS5003;17137;51.494;-0.262;2023-06-14T03:20:36;17;16;
28647;PMS5003;17137;51.494;-0.262;2023-06-14T03:21:07;17;16;
28647;PMS5003;17137;51.494;-0.262;2023-06-14T03:21:37;17;16;
28647;PMS5003;17137;51.494;-0.262;2023-06-14T03:22:07;18;18;